createdAt,value
2023-05-10T00:02:21.379Z,100839.72
2023-05-10T00:05:23.988Z,100840.53
2023-05-10T00:08:26.494Z,100844.50
2023-05-10T00:11:30.412Z,100836.13
2023-05-10T00:14:33.014Z,100835.66
2023-05-10T00:17:35.723Z,100834.09
2023-05-10T00:20:38.355Z,100833.28
2023-05-10T00:23:40.905Z,100825.25
2023-05-10T00:26:44.761Z,100833.19
2023-05-10T00:29:47.278Z,100833.00
2023-05-10T00:32:50.758Z,100830.34
2023-05-10T00:35:53.497Z,100834.44
2023-05-10T00:38:56.054Z,100829.88
2023-05-10T00:42:00.523Z,100836.63
2023-05-10T00:45:03.088Z,100833.03
2023-05-10T00:48:06.094Z,100824.19
2023-05-10T00:51:08.608Z,100842.41
2023-05-10T00:54:11.261Z,100840.72
2023-05-10T00:57:15.162Z,100848.28
2023-05-10T01:00:19.198Z,100850.25
2023-05-10T01:03:21.861Z,100855.81
2023-05-10T01:06:24.452Z,100857.44
2023-05-10T01:09:27.904Z,100856.34
2023-05-10T01:12:31.803Z,100861.22
2023-05-10T01:15:34.431Z,100860.13
2023-05-10T01:18:38.235Z,100863.78
2023-05-10T01:21:43.419Z,100859.84
2023-05-10T01:25:05.828Z,100867.50
2023-05-10T01:28:36.400Z,100866.34
2023-05-10T01:31:57.448Z,100870.72
2023-05-10T01:35:02.827Z,100881.88
2023-05-10T01:38:21.438Z,100881.16
2023-05-10T01:41:27.224Z,100883.66
2023-05-10T01:44:32.092Z,100884.50
2023-05-10T01:47:37.621Z,100879.41
2023-05-10T01:50:41.777Z,100895.06
2023-05-10T01:53:44.505Z,100884.56
2023-05-10T01:56:47.097Z,100893.56
2023-05-10T01:59:50.722Z,100857.66
2023-05-10T02:02:54.666Z,100898.47
2023-05-10T02:05:57.269Z,100904.97
2023-05-10T02:08:59.792Z,100893.91
2023-05-10T02:12:03.844Z,100897.94
2023-05-10T02:15:07.663Z,100885.06
2023-05-10T02:18:11.598Z,100896.47
2023-05-10T02:21:14.186Z,100899.66
2023-05-10T02:24:16.724Z,100908.53
2023-05-10T02:27:19.503Z,100893.16
2023-05-10T02:30:22.208Z,100899.66
2023-05-10T02:33:26.200Z,100904.66
2023-05-10T02:36:29.414Z,100911.03
2023-05-10T02:39:32.005Z,100908.16
2023-05-10T02:42:35.416Z,100919.06
2023-05-10T02:45:39.825Z,100915.00
2023-05-10T02:48:43.761Z,100917.44
2023-05-10T02:51:53.974Z,100907.75
2023-05-10T02:54:57.239Z,100910.06
2023-05-10T02:58:01.118Z,100923.03
2023-05-10T03:01:03.685Z,100919.06
2023-05-10T03:04:08.125Z,100915.06
2023-05-10T03:07:10.743Z,100920.66
2023-05-10T03:10:13.340Z,100916.69
2023-05-10T03:13:19.263Z,100915.06
2023-05-10T03:16:27.611Z,100905.53
2023-05-10T03:19:34.230Z,100895.94
2023-05-10T03:22:39.094Z,100927.44
2023-05-10T03:25:41.865Z,100928.63
2023-05-10T03:28:44.541Z,100927.44
2023-05-10T03:31:47.214Z,100938.63
2023-05-10T03:34:51.145Z,100933.03
2023-05-10T03:37:53.746Z,100926.25
2023-05-10T03:40:56.613Z,100927.44
2023-05-10T03:43:59.198Z,100929.50
2023-05-10T03:47:01.794Z,100933.09
2023-05-10T03:50:06.853Z,100934.72
2023-05-10T03:53:09.502Z,100925.06
2023-05-10T03:56:12.106Z,100920.75
2023-05-10T03:59:14.718Z,100938.34
2023-05-10T04:02:17.365Z,100922.56
2023-05-10T04:05:21.431Z,100947.53
2023-05-10T04:08:25.169Z,100937.53
2023-05-10T04:11:27.727Z,100949.50
2023-05-10T04:14:30.316Z,100963.91
2023-05-10T04:17:32.949Z,100952.72
2023-05-10T04:20:36.902Z,100937.28
2023-05-10T04:23:39.523Z,100950.22
2023-05-10T04:26:42.158Z,100952.59
2023-05-10T04:29:44.725Z,100955.38
2023-05-10T04:32:47.343Z,100963.31
2023-05-10T04:35:51.269Z,100964.41
2023-05-10T04:38:53.872Z,100968.28
2023-05-10T04:41:56.502Z,100975.78
2023-05-10T04:44:59.091Z,100967.75
2023-05-10T04:48:01.775Z,100970.94
2023-05-10T04:51:07.345Z,100974.91
2023-05-10T04:54:09.993Z,100938.06
2023-05-10T04:57:12.533Z,100972.81
2023-05-10T05:00:16.151Z,100980.91
2023-05-10T05:03:18.972Z,100986.88
2023-05-10T05:06:23.018Z,100986.44
2023-05-10T05:09:25.578Z,100992.81
2023-05-10T05:12:28.241Z,100992.47
2023-05-10T05:15:31.525Z,100996.06
2023-05-10T05:18:34.114Z,100994.88
2023-05-10T05:21:38.199Z,100996.16
2023-05-10T05:24:41.152Z,101003.34
2023-05-10T05:27:43.866Z,101001.00
2023-05-10T05:30:46.457Z,101013.78
2023-05-10T05:33:49.066Z,101009.00
2023-05-10T05:36:53.041Z,101007.50
2023-05-10T05:39:55.892Z,101019.09
2023-05-10T05:42:58.467Z,101019.91
2023-05-10T05:46:01.080Z,101015.53
2023-05-10T05:49:03.731Z,101021.09
2023-05-10T05:52:07.783Z,101028.28
2023-05-10T05:55:10.599Z,101022.69
2023-05-10T05:58:13.163Z,101024.31
2023-05-10T06:01:15.756Z,101027.56
2023-05-10T06:04:18.496Z,101033.63
2023-05-10T06:07:22.472Z,101026.94
2023-05-10T06:10:26.411Z,101028.63
2023-05-10T06:13:33.070Z,101032.75
2023-05-10T06:16:35.996Z,101031.75
2023-05-10T06:19:38.697Z,101033.09
2023-05-10T06:22:42.576Z,101030.09
2023-05-10T06:25:45.196Z,101031.03
2023-05-10T06:28:47.790Z,101036.72
2023-05-10T06:31:50.491Z,101035.25
2023-05-10T06:34:53.212Z,101029.81
2023-05-10T06:37:57.233Z,101031.50
2023-05-10T06:40:59.864Z,101034.00
2023-05-10T06:44:02.445Z,101035.66
2023-05-10T06:47:05.339Z,101041.34
2023-05-10T06:50:08.977Z,101034.06
2023-05-10T06:53:14.114Z,101044.56
2023-05-10T06:56:16.724Z,101033.13
2023-05-10T06:59:20.371Z,101045.03
2023-05-10T07:02:23.457Z,101052.25
2023-05-10T07:05:26.128Z,101047.75
2023-05-10T07:08:30.164Z,101048.69
2023-05-10T07:11:32.757Z,101057.38
2023-05-10T07:14:35.334Z,101067.09
2023-05-10T07:17:38.022Z,101064.75
2023-05-10T07:20:40.629Z,101055.03
2023-05-10T07:23:45.220Z,101064.91
2023-05-10T07:26:47.907Z,101056.72
2023-05-10T07:29:50.527Z,101069.31
2023-05-10T07:32:53.231Z,101071.22
2023-05-10T07:35:55.923Z,101080.97
2023-05-10T07:38:59.851Z,101084.28
2023-05-10T07:42:02.463Z,101079.94
2023-05-10T07:45:05.684Z,101076.41
2023-05-10T07:48:08.462Z,101083.59
2023-05-10T07:51:11.648Z,101083.59
2023-05-10T07:54:15.760Z,101078.75
2023-05-10T07:57:18.520Z,101086.50
2023-05-10T08:00:21.530Z,101086.13
2023-05-10T08:03:24.189Z,101090.97
2023-05-10T08:06:28.035Z,101091.78
2023-05-10T08:09:32.017Z,101088.69
2023-05-10T08:12:34.610Z,101088.75
2023-05-10T08:15:37.236Z,101093.59
2023-05-10T08:18:39.897Z,101068.44
2023-05-10T08:21:43.368Z,101090.44
2023-05-10T08:24:47.313Z,101098.63
2023-05-10T08:27:49.935Z,101105.06
2023-05-10T08:30:53.074Z,101097.00
2023-05-10T08:33:55.791Z,101114.78
2023-05-10T08:36:58.350Z,101115.66
2023-05-10T08:40:02.709Z,101120.53
2023-05-10T08:43:07.863Z,101116.59
2023-05-10T08:46:10.662Z,101113.34
2023-05-10T08:49:13.435Z,101131.41
2023-05-10T08:52:16.015Z,101137.47
2023-05-10T08:55:19.974Z,101145.88
2023-05-10T08:58:22.627Z,101141.44
2023-05-10T09:01:25.412Z,101126.88
2023-05-10T09:04:28.472Z,101145.13
2023-05-10T09:07:31.256Z,101163.00
2023-05-10T09:10:35.336Z,101163.94
2023-05-10T09:13:38.014Z,101166.84
2023-05-10T09:16:40.667Z,101161.38
2023-05-10T09:19:43.253Z,101169.56
2023-05-10T09:22:45.902Z,101166.81
2023-05-10T09:25:49.874Z,101172.22
2023-05-10T09:28:53.189Z,101169.97
2023-05-10T09:31:56.476Z,101165.31
2023-05-10T09:34:59.088Z,101166.28
2023-05-10T09:38:03.134Z,101153.50
2023-05-10T09:41:07.201Z,101170.19
2023-05-10T09:44:09.812Z,101162.41
2023-05-10T09:47:12.813Z,101182.69
2023-05-10T09:50:15.410Z,101180.31
2023-05-10T09:53:18.751Z,101193.59
2023-05-10T09:56:36.669Z,101182.69
2023-05-10T09:59:44.095Z,101198.97
2023-05-10T10:02:48.126Z,101202.97
2023-05-10T10:05:51.253Z,101180.19
2023-05-10T10:08:56.160Z,101200.06
2023-05-10T10:12:01.084Z,101203.56
2023-05-10T10:15:03.687Z,101201.91
2023-05-10T10:18:06.466Z,101198.50
2023-05-10T10:21:09.210Z,101210.56
2023-05-10T10:24:11.761Z,101222.47
2023-05-10T10:27:21.627Z,101212.06
2023-05-10T10:30:28.190Z,101219.19
2023-05-10T10:33:36.611Z,101227.13
2023-05-10T10:36:42.647Z,101218.22
2023-05-10T10:39:45.251Z,101226.19
2023-05-10T10:42:50.790Z,101226.31
2023-05-10T10:46:12.387Z,101232.19
2023-05-10T10:49:18.149Z,101224.91
2023-05-10T10:52:27.672Z,101232.06
2023-05-10T10:55:31.281Z,101227.59
2023-05-10T10:58:35.997Z,101233.53
2023-05-10T11:01:38.651Z,101213.31
2023-05-10T11:04:44.368Z,101232.41
2023-05-10T11:07:53.853Z,101236.91
2023-05-10T11:11:08.719Z,101228.78
2023-05-10T11:14:12.702Z,101243.41
2023-05-10T11:17:33.732Z,101244.28
2023-05-10T11:20:40.810Z,101249.13
2023-05-10T11:23:50.405Z,101241.16
2023-05-10T11:26:53.132Z,101244.84
2023-05-10T11:29:57.116Z,101227.94
2023-05-10T11:32:59.748Z,101243.75
2023-05-10T11:36:02.529Z,101241.06
2023-05-10T11:39:05.199Z,101247.28
2023-05-10T11:42:10.397Z,101239.34
2023-05-10T11:45:14.534Z,101248.25
2023-05-10T11:48:17.686Z,101245.97
2023-05-10T11:51:22.061Z,101241.25
2023-05-10T11:54:24.687Z,101240.53
2023-05-10T11:57:28.585Z,101246.25
2023-05-10T12:00:32.806Z,101243.91
2023-05-10T12:03:35.577Z,101251.28
2023-05-10T12:06:39.700Z,101254.56
2023-05-10T12:09:44.872Z,101254.31
2023-05-10T12:12:48.392Z,101257.50
2023-05-10T12:15:52.357Z,101261.94
2023-05-10T12:18:56.959Z,101260.66
2023-05-10T12:21:59.700Z,101239.03
2023-05-10T12:25:02.694Z,101256.19
2023-05-10T12:28:06.057Z,101263.34
2023-05-10T12:31:10.062Z,101269.38
2023-05-10T12:34:12.668Z,101272.94
2023-05-10T12:37:15.508Z,101268.13
2023-05-10T12:40:18.258Z,101274.59
2023-05-10T12:43:21.044Z,101276.31
2023-05-10T12:46:26.189Z,101273.16
2023-05-10T12:49:28.847Z,101262.94
2023-05-10T12:52:32.542Z,101281.59
2023-05-10T12:55:35.119Z,101286.88
2023-05-10T12:58:37.708Z,101240.84
2023-05-10T13:01:41.682Z,101274.13
2023-05-10T13:04:44.477Z,101281.47
2023-05-10T13:07:47.131Z,101291.91
2023-05-10T13:10:49.690Z,101274.47
2023-05-10T13:13:52.300Z,101294.72
2023-05-10T13:16:56.385Z,101291.09
2023-05-10T13:19:59.010Z,101297.13
2023-05-10T13:23:01.571Z,101300.69
2023-05-10T13:26:04.113Z,101295.81
2023-05-10T13:29:06.714Z,101286.06
2023-05-10T13:32:10.592Z,101306.22
2023-05-10T13:35:13.142Z,101304.59
2023-05-10T13:38:15.752Z,101303.63
2023-05-10T13:41:18.542Z,101309.34
2023-05-10T13:44:22.301Z,101306.09
2023-05-10T13:47:26.240Z,101292.25
2023-05-10T13:50:28.947Z,101305.25
2023-05-10T13:53:31.485Z,101298.78
2023-05-10T13:56:34.288Z,101282.75
2023-05-10T13:59:36.867Z,101309.88
2023-05-10T14:02:41.430Z,101306.63
2023-05-10T14:05:44.025Z,101280.31
2023-05-10T14:08:46.578Z,101309.88
2023-05-10T14:11:49.190Z,101316.34
2023-05-10T14:14:51.747Z,101309.56
2023-05-10T14:17:55.652Z,101303.50
2023-05-10T14:20:58.312Z,101308.81
2023-05-10T14:24:00.861Z,101306.09
2023-05-10T14:27:03.461Z,101303.78
2023-05-10T14:30:07.077Z,101300.16
2023-05-10T14:33:11.472Z,101298.25
2023-05-10T14:36:14.317Z,101302.31
2023-05-10T14:39:18.058Z,101304.78
2023-05-10T14:42:20.676Z,101305.63
2023-05-10T14:45:23.449Z,101285.91
2023-05-10T14:48:27.452Z,101302.56
2023-05-10T14:51:30.023Z,101266.22
2023-05-10T14:54:34.315Z,101298.66
2023-05-10T14:57:37.018Z,101297.91
2023-05-10T15:00:39.596Z,101300.38
2023-05-10T15:03:44.192Z,101289.13
2023-05-10T15:06:47.217Z,101290.75
2023-05-10T15:09:49.798Z,101293.97
2023-05-10T15:12:52.399Z,101297.66
2023-05-10T15:15:55.144Z,101298.06
2023-05-10T15:18:59.102Z,101282.69
2023-05-10T15:22:01.642Z,101302.09
2023-05-10T15:25:04.902Z,101299.75
2023-05-10T15:28:07.439Z,101270.63
2023-05-10T15:31:10.073Z,101304.19
2023-05-10T15:34:14.069Z,101307.84
2023-05-10T15:37:16.600Z,101312.72
2023-05-10T15:40:19.264Z,101315.56
2023-05-10T15:43:21.801Z,101321.63
2023-05-10T15:46:24.469Z,101327.63
2023-05-10T15:49:28.448Z,101330.44
2023-05-10T15:52:31.116Z,101336.13
2023-05-10T15:55:34.992Z,101341.69
2023-05-10T15:58:38.435Z,101342.47
2023-05-10T16:01:41.154Z,101351.66
2023-05-10T16:04:45.635Z,101348.00
2023-05-10T16:07:49.036Z,101330.53
2023-05-10T16:10:52.212Z,101344.72
2023-05-10T16:13:54.750Z,101353.56
2023-05-10T16:16:57.407Z,101347.50
2023-05-10T16:20:01.844Z,101358.34
2023-05-10T16:23:07.325Z,101350.28
2023-05-10T16:26:09.893Z,101361.50
2023-05-10T16:29:12.505Z,101353.81
2023-05-10T16:32:15.027Z,101365.38
2023-05-10T16:35:19.097Z,101367.75
2023-05-10T16:38:22.659Z,101372.53
2023-05-10T16:41:25.665Z,101373.28
2023-05-10T16:44:28.294Z,101371.28
2023-05-10T16:47:31.092Z,101373.34
2023-05-10T16:50:35.085Z,101369.28
2023-05-10T16:53:37.673Z,101366.44
2023-05-10T16:56:40.849Z,101365.94
2023-05-10T16:59:43.442Z,101377.19
2023-05-10T17:02:46.384Z,101352.13
2023-05-10T17:05:50.419Z,101359.47
2023-05-10T17:08:53.028Z,101376.44
2023-05-10T17:11:55.597Z,101369.97
2023-05-10T17:14:58.639Z,101374.38
2023-05-10T17:18:01.308Z,101371.56
2023-05-10T17:21:05.442Z,101371.56
2023-05-10T17:24:08.253Z,101372.78
2023-05-10T17:27:11.205Z,101375.59
2023-05-10T17:30:14.361Z,101383.59
2023-05-10T17:33:16.898Z,101381.19
2023-05-10T17:36:20.792Z,101373.94
2023-05-10T17:39:23.418Z,101380.31
2023-05-10T17:42:25.949Z,101374.69
2023-05-10T17:45:28.509Z,101377.88
2023-05-10T17:48:31.125Z,101375.47
2023-05-10T17:51:35.039Z,101381.81
2023-05-10T17:54:37.585Z,101385.72
2023-05-10T17:57:40.181Z,101383.69
2023-05-10T18:00:42.736Z,101387.69
2023-05-10T18:03:46.210Z,101384.06
2023-05-10T18:06:50.265Z,101381.63
2023-05-10T18:09:52.813Z,101388.88
2023-05-10T18:12:55.417Z,101386.47
2023-05-10T18:15:58.020Z,101392.44
2023-05-10T18:19:01.075Z,101394.81
2023-05-10T18:22:05.499Z,101396.78
2023-05-10T18:25:09.310Z,101392.66
2023-05-10T18:28:12.068Z,101370.75
2023-05-10T18:31:14.720Z,101390.88
2023-05-10T18:34:17.566Z,101394.00
2023-05-10T18:37:21.542Z,101390.75
2023-05-10T18:40:24.247Z,101388.59
2023-05-10T18:43:26.855Z,101393.91
2023-05-10T18:46:30.329Z,101388.91
2023-05-10T18:49:32.931Z,101401.00
2023-05-10T18:52:36.890Z,101401.75
2023-05-10T18:55:40.570Z,101412.88
2023-05-10T18:58:43.181Z,101408.84
2023-05-10T19:01:45.812Z,101415.25
2023-05-10T19:04:48.536Z,101415.25
2023-05-10T19:07:52.500Z,101417.59
2023-05-10T19:10:55.087Z,101416.72
2023-05-10T19:13:57.696Z,101414.66
2023-05-10T19:17:00.323Z,101427.97
2023-05-10T19:20:02.896Z,101408.03
2023-05-10T19:23:10.083Z,101424.22
2023-05-10T19:26:13.147Z,101431.94
2023-05-10T19:29:15.758Z,101442.34
2023-05-10T19:32:18.388Z,101441.53
2023-05-10T19:35:20.977Z,101440.69
2023-05-10T19:38:24.957Z,101448.66
2023-05-10T19:41:28.034Z,101453.09
2023-05-10T19:44:30.614Z,101448.66
2023-05-10T19:47:34.524Z,101451.47
2023-05-10T19:50:38.091Z,101451.47
2023-05-10T19:53:44.650Z,101459.06
2023-05-10T19:56:47.253Z,101462.22
2023-05-10T19:59:49.837Z,101465.44
2023-05-10T20:02:52.479Z,101461.38
2023-05-10T20:05:55.022Z,101464.16
2023-05-10T20:08:58.948Z,101466.91
2023-05-10T20:12:01.989Z,101466.84
2023-05-10T20:15:04.710Z,101461.16
2023-05-10T20:18:07.332Z,101463.50
2023-05-10T21:14:24.470Z,101469.34
2023-05-10T21:17:27.066Z,101472.81
2023-05-10T21:20:30.317Z,101469.06
2023-05-10T21:23:34.542Z,101476.03
2023-05-10T21:26:37.356Z,101466.41
2023-05-10T21:29:41.272Z,101460.69
2023-05-10T21:32:43.894Z,101469.75
2023-05-10T21:35:46.449Z,101462.31
2023-05-10T21:38:50.393Z,101463.28
2023-05-10T21:41:53.094Z,101457.41
2023-05-10T21:44:57.064Z,101466.72
2023-05-10T21:47:59.636Z,101459.22
2023-05-10T21:51:02.466Z,101465.69
2023-05-10T21:54:05.415Z,101457.75
2023-05-10T21:57:08.039Z,101457.03
2023-05-10T22:00:13.520Z,101454.66
2023-05-10T22:03:16.103Z,101461.88
2023-05-10T22:06:18.805Z,101452.31
2023-05-10T22:09:21.607Z,101465.16
2023-05-10T22:12:24.225Z,101450.97
2023-05-10T22:15:28.176Z,101472.38
2023-05-10T22:18:30.863Z,101470.66
2023-05-10T22:21:33.418Z,101472.22
2023-05-10T22:24:36.032Z,101463.34
2023-05-10T22:27:38.632Z,101476.19
2023-05-10T22:30:43.750Z,101468.25
2023-05-10T22:33:46.453Z,101472.63
2023-05-10T22:36:50.313Z,101468.97
2023-05-10T22:39:52.839Z,101467.16
2023-05-10T22:42:55.479Z,101470.25
2023-05-10T22:45:59.474Z,101476.59
2023-05-10T22:49:02.524Z,101476.19
2023-05-10T22:52:05.083Z,101470.25
2023-05-10T22:55:08.348Z,101473.03
2023-05-10T22:58:11.009Z,101472.69
2023-05-10T23:01:14.913Z,101473.50
2023-05-10T23:04:17.952Z,101480.72
2023-05-10T23:07:20.581Z,101479.53
2023-05-10T23:10:23.173Z,101479.19
2023-05-10T23:13:25.690Z,101474.38
2023-05-10T23:16:29.781Z,101477.19
2023-05-10T23:19:32.444Z,101476.72
2023-05-10T23:35:48.770Z,101472.66
2023-05-10T23:38:51.284Z,101467.00
2023-05-10T23:41:53.784Z,101474.19
2023-05-10T23:44:56.518Z,101467.88
2023-05-10T23:47:59.121Z,101464.84
2023-05-10T23:51:03.547Z,101472.16
2023-05-10T23:54:06.202Z,101470.63
2023-05-10T23:57:08.772Z,101464.31
